Time;durP1;ratioP1;P1;durP2;ratioP2;P2;SDS_P1;SDS_P2;PMS_P1;PMS_P2;Temp;Humidity;BMP_temperature;BMP_pressure;BME280_temperature;BME280_humidity;BME280_pressure;Samples;Min_cycle;Max_cycle;Signal;HPM_P1;HPM_P2
2022/10/03 00:00:06;;;;;;;0.10;0.10;;;;;;;17.58;47.17;95111.09;5043618;28;20475;-62
2022/10/03 00:02:52;;;;;;;0.30;0.30;;;;;;;17.62;46.80;95104.16;5041287;28;20489;-61
2022/10/03 00:05:34;;;;;;;0.00;0.00;;;;;;;17.69;46.27;95102.69;5046023;28;20576;-62
2022/10/03 00:08:19;;;;;;;0.10;0.10;;;;;;;17.54;47.10;95094.22;5036871;28;20483;-63
2022/10/03 00:11:02;;;;;;;0.00;0.00;;;;;;;17.48;47.21;95098.06;5033176;28;20518;-63
2022/10/03 00:13:42;;;;;;;0.00;0.00;;;;;;;17.71;46.97;95089.91;5040068;28;20442;-62
2022/10/03 00:16:21;;;;;;;0.10;0.10;;;;;;;17.60;46.79;95085.09;5033103;28;20494;-61
2022/10/03 00:19:06;;;;;;;0.47;0.30;;;;;;;17.59;46.70;95072.94;5039876;28;20526;-63
2022/10/03 00:21:41;;;;;;;0.30;0.30;;;;;;;17.62;46.04;95064.38;5033223;28;20480;-63
2022/10/03 00:24:17;;;;;;;0.00;0.00;;;;;;;17.37;46.97;95072.78;5037803;28;20440;-62
2022/10/03 00:26:59;;;;;;;0.40;0.40;;;;;;;17.60;46.14;95066.56;5044030;28;20543;-62
2022/10/03 00:29:40;;;;;;;0.10;0.10;;;;;;;17.32;46.57;95059.66;5039163;28;20435;-63
2022/10/03 00:32:25;;;;;;;0.00;0.00;;;;;;;17.42;46.78;95072.69;5043940;28;20498;-62
2022/10/03 00:35:13;;;;;;;0.00;0.00;;;;;;;17.30;46.99;95080.34;5047469;28;20512;-61
2022/10/03 00:37:56;;;;;;;0.20;0.20;;;;;;;17.54;46.57;95068.50;5042086;28;20479;-63
2022/10/03 00:41:08;;;;;;;1.03;0.50;;;;;;;17.57;47.01;95072.44;5039214;28;20508;-62
2022/10/03 00:43:59;;;;;;;0.43;0.43;;;;;;;17.45;46.47;95064.16;5034243;28;20486;-64
2022/10/03 00:46:46;;;;;;;0.00;0.00;;;;;;;17.16;47.08;95062.56;5048446;28;20550;-61
2022/10/03 00:49:31;;;;;;;0.00;0.00;;;;;;;17.39;46.63;95073.28;5034588;28;21036;-62
2022/10/03 00:52:39;;;;;;;0.10;0.10;;;;;;;16.97;47.91;95063.72;5035190;28;20899;-62
2022/10/03 00:55:27;;;;;;;0.10;0.10;;;;;;;17.11;47.43;95078.56;5028875;28;20550;-62
2022/10/03 00:57:54;;;;;;;0.10;0.10;;;;;;;17.11;47.99;95075.91;5040339;28;20506;-61
2022/10/03 01:00:25;;;;;;;0.33;0.33;;;;;;;17.04;47.88;95058.81;5032605;28;20818;-62
2022/10/03 01:03:13;;;;;;;0.00;0.00;;;;;;;17.19;47.88;95077.06;5037254;28;20462;-61
2022/10/03 01:05:44;;;;;;;0.07;0.07;;;;;;;17.21;47.71;95070.41;5044187;28;20519;-62
2022/10/03 01:08:25;;;;;;;0.20;0.20;;;;;;;17.27;47.87;95068.47;5034627;28;20555;-63
2022/10/03 01:10:55;;;;;;;0.00;0.00;;;;;;;17.08;47.30;95044.69;5029644;28;20894;-62
2022/10/03 01:13:38;;;;;;;2.53;1.30;;;;;;;17.12;47.99;95050.97;5040744;28;21171;-63
2022/10/03 01:16:28;;;;;;;0.43;0.33;;;;;;;16.96;47.98;95057.63;5030055;28;20543;-61
2022/10/03 01:19:16;;;;;;;0.10;0.10;;;;;;;16.71;48.25;95060.69;5039594;28;20456;-62
2022/10/03 01:22:10;;;;;;;1.07;0.97;;;;;;;16.76;48.30;95063.25;5037901;28;21242;-62
2022/10/03 01:25:24;;;;;;;0.10;0.10;;;;;;;16.95;47.69;95061.31;5043901;28;20561;-61
2022/10/03 01:31:01;;;;;;;0.43;0.43;;;;;;;16.20;48.77;95049.28;5043634;28;20870;-62
2022/10/03 01:33:47;;;;;;;0.40;0.40;;;;;;;16.34;48.64;95039.53;5040225;28;20885;-61
2022/10/03 01:36:22;;;;;;;0.00;0.00;;;;;;;16.38;49.03;95035.25;5047729;28;20538;-63
2022/10/03 01:38:59;;;;;;;0.20;0.20;;;;;;;16.31;49.43;95040.13;5040950;28;20457;-62
2022/10/03 01:41:50;;;;;;;0.93;0.47;;;;;;;16.43;48.67;95047.59;5037543;28;20838;-62
2022/10/03 01:44:29;;;;;;;1.07;0.77;;;;;;;16.05;49.45;95052.91;5038689;28;20478;-62
2022/10/03 01:47:30;;;;;;;0.10;0.10;;;;;;;15.97;49.24;95045.59;5036386;28;20455;-61
2022/10/03 01:50:07;;;;;;;0.00;0.00;;;;;;;16.21;48.95;95048.19;5037774;28;20477;-64
2022/10/03 01:52:48;;;;;;;0.17;0.17;;;;;;;16.45;48.00;95033.03;5032203;28;20459;-62
2022/10/03 01:55:44;;;;;;;1.90;1.10;;;;;;;16.63;47.83;95037.53;5033082;28;20977;-61
2022/10/03 01:58:28;;;;;;;0.40;0.40;;;;;;;16.57;48.44;95035.25;5033857;28;20490;-61
2022/10/03 02:01:10;;;;;;;0.00;0.00;;;;;;;16.82;47.13;95024.25;5046510;28;21214;-62
2022/10/03 02:04:03;;;;;;;2.20;0.50;;;;;;;16.51;47.90;95029.28;5042672;28;20459;-61
2022/10/03 02:06:49;;;;;;;0.97;0.67;;;;;;;16.33;48.25;95027.38;5040204;28;20481;-62
2022/10/03 02:09:51;;;;;;;0.20;0.20;;;;;;;16.26;48.95;95024.31;5039000;28;20498;-63
2022/10/03 02:12:26;;;;;;;0.57;0.57;;;;;;;16.26;48.68;95023.53;5043505;28;20474;-62
2022/10/03 02:14:55;;;;;;;0.10;0.10;;;;;;;16.18;49.45;95019.69;5037531;28;20492;-61
2022/10/03 02:17:44;;;;;;;0.10;0.10;;;;;;;16.04;49.64;95024.09;5028927;28;20541;-62
2022/10/03 02:20:52;;;;;;;0.73;0.73;;;;;;;16.51;48.49;95025.81;5035218;28;20486;-65
2022/10/03 02:23:42;;;;;;;0.20;0.20;;;;;;;16.63;48.48;95026.16;5032979;28;20478;-63
2022/10/03 02:26:30;;;;;;;0.20;0.20;;;;;;;16.66;48.31;95026.34;5030561;28;20879;-62
2022/10/03 02:29:31;;;;;;;0.07;0.07;;;;;;;16.72;48.76;95037.63;5033079;28;20467;-62
2022/10/03 02:32:05;;;;;;;0.23;0.23;;;;;;;16.48;48.88;95035.13;5028861;28;20447;-63
2022/10/03 02:35:10;;;;;;;0.10;0.10;;;;;;;16.66;49.13;95039.59;5039656;28;20481;-63
2022/10/03 02:38:44;;;;;;;0.10;0.10;;;;;;;16.80;48.53;95037.78;5028809;28;21220;-63
2022/10/03 02:41:24;;;;;;;0.20;0.20;;;;;;;16.91;48.19;95038.41;4986335;28;21017;-63
2022/10/03 02:44:28;;;;;;;0.10;0.10;;;;;;;17.04;48.02;95032.34;4985193;28;21002;-62
2022/10/03 02:46:58;;;;;;;0.37;0.37;;;;;;;16.92;47.69;95030.16;5031188;28;20890;-62
2022/10/03 02:49:57;;;;;;;0.40;0.33;;;;;;;16.92;47.85;95027.50;5033760;28;20474;-63
2022/10/03 02:52:35;;;;;;;0.20;0.20;;;;;;;16.77;48.40;95030.41;5026496;28;20517;-63
2022/10/03 02:55:27;;;;;;;0.10;0.10;;;;;;;16.89;47.82;95030.75;5036347;28;20804;-61
2022/10/03 02:58:25;;;;;;;0.20;0.20;;;;;;;16.73;48.48;95026.75;5040469;28;20460;-62
2022/10/03 03:01:16;;;;;;;0.13;0.13;;;;;;;16.92;47.83;95029.38;5032353;28;20447;-63
2022/10/03 03:04:28;;;;;;;0.20;0.20;;;;;;;16.97;47.40;95038.00;5036450;28;20528;-62
2022/10/03 03:07:28;;;;;;;0.13;0.13;;;;;;;16.82;48.07;95030.31;5052874;28;20572;-65
2022/10/03 03:10:33;;;;;;;1.13;1.03;;;;;;;16.60;48.87;95027.53;5027567;28;20439;-65
2022/10/03 03:13:24;;;;;;;0.23;0.23;;;;;;;16.77;48.52;95027.00;5030249;28;20465;-63
2022/10/03 03:16:10;;;;;;;2.10;1.77;;;;;;;16.70;49.01;95024.72;5038336;28;20445;-63
2022/10/03 03:19:03;;;;;;;0.03;0.03;;;;;;;16.74;48.24;95017.75;5038574;28;21756;-63
2022/10/03 03:22:15;;;;;;;0.13;0.13;;;;;;;16.74;48.76;95016.97;5046323;28;20823;-61
2022/10/03 03:25:10;;;;;;;1.30;1.20;;;;;;;16.65;49.02;95018.72;5040479;28;21027;-63
2022/10/03 03:27:39;;;;;;;0.90;0.70;;;;;;;16.34;49.03;95023.66;5045561;28;20505;-63
2022/10/03 03:30:09;;;;;;;0.67;0.67;;;;;;;16.32;49.50;95015.25;5041022;28;20899;-63
2022/10/03 03:32:51;;;;;;;1.10;1.10;;;;;;;16.50;48.46;95016.31;5045782;28;20885;-62
2022/10/03 03:35:45;;;;;;;0.30;0.30;;;;;;;16.47;49.26;95012.41;5040633;28;20465;-63
2022/10/03 03:38:32;;;;;;;0.83;0.83;;;;;;;16.55;49.15;95019.66;5049950;28;20462;-63
2022/10/03 03:41:14;;;;;;;0.10;0.10;;;;;;;16.53;48.87;95013.88;5040488;28;20444;-62
2022/10/03 03:44:14;;;;;;;0.30;0.30;;;;;;;16.52;48.89;94998.28;5041717;28;20462;-64
2022/10/03 03:47:07;;;;;;;0.07;0.07;;;;;;;16.64;48.65;95007.34;5045522;28;20478;-64
2022/10/03 03:49:54;;;;;;;0.60;0.50;;;;;;;16.34;50.23;95013.09;5037189;28;20911;-64
2022/10/03 03:52:40;;;;;;;2.23;1.13;;;;;;;16.47;49.62;95007.09;5051047;28;20977;-63
2022/10/03 03:55:23;;;;;;;0.10;0.10;;;;;;;16.48;49.65;95008.66;5037196;28;20458;-63
2022/10/03 03:58:01;;;;;;;0.20;0.20;;;;;;;16.23;50.57;95006.38;5041027;28;20805;-63
2022/10/03 04:00:32;;;;;;;0.10;0.10;;;;;;;16.55;50.15;94987.91;5032254;28;20905;-64
2022/10/03 04:03:18;;;;;;;0.83;0.83;;;;;;;16.65;50.70;94995.69;5037239;28;20463;-64
2022/10/03 04:06:09;;;;;;;0.67;0.47;;;;;;;16.76;49.38;94994.44;5038831;28;20540;-65
2022/10/03 04:09:00;;;;;;;0.40;0.40;;;;;;;16.58;50.15;94997.13;5036564;28;20521;-61
2022/10/03 04:11:49;;;;;;;1.50;0.97;;;;;;;16.74;50.39;94993.94;5040979;28;20455;-62
2022/10/03 04:14:45;;;;;;;0.70;0.70;;;;;;;16.53;50.77;94984.75;5043982;28;20446;-61
2022/10/03 04:21:18;;;;;;;0.37;0.37;;;;;;;16.75;50.08;94990.22;5045749;28;20541;-62
2022/10/03 04:23:58;;;;;;;0.70;0.70;;;;;;;16.59;50.60;94978.31;5030236;28;21028;-62
2022/10/03 04:26:58;;;;;;;0.40;0.40;;;;;;;16.75;50.78;94992.09;5047734;28;20505;-61
2022/10/03 04:30:10;;;;;;;1.13;0.53;;;;;;;16.81;49.78;94988.25;5048537;28;20443;-62
2022/10/03 04:33:10;;;;;;;1.37;0.87;;;;;;;16.87;50.15;94992.41;5061604;28;20448;-61
2022/10/03 04:36:08;;;;;;;0.10;0.10;;;;;;;16.85;49.68;94990.06;5056900;28;21010;-62
2022/10/03 04:38:53;;;;;;;0.20;0.20;;;;;;;16.97;49.86;94990.34;5037851;28;20825;-62
2022/10/03 04:41:48;;;;;;;0.40;0.40;;;;;;;16.89;50.21;94993.69;5035045;28;20444;-62
2022/10/03 04:44:18;;;;;;;0.50;0.50;;;;;;;17.22;49.28;94986.47;5029596;28;20476;-62
2022/10/03 04:46:57;;;;;;;0.57;0.57;;;;;;;17.08;50.16;94990.94;5042648;28;21036;-63
2022/10/03 04:49:55;;;;;;;7.30;3.53;;;;;;;17.09;49.39;94997.81;5047659;28;20816;-62
2022/10/03 04:52:38;;;;;;;4.47;4.13;;;;;;;17.21;49.59;94996.25;5036598;28;20462;-64
2022/10/03 04:55:16;;;;;;;4.20;2.80;;;;;;;17.17;48.94;94984.69;5049741;28;20450;-63
2022/10/03 04:57:48;;;;;;;0.20;0.20;;;;;;;16.97;49.80;94987.72;5041643;28;20439;-63
2022/10/03 05:00:40;;;;;;;0.90;0.90;;;;;;;17.05;49.23;94983.59;5044090;28;20445;-65
2022/10/03 05:03:19;;;;;;;4.03;1.63;;;;;;;17.02;49.30;94989.50;5029883;28;20543;-64
2022/10/03 05:06:01;;;;;;;0.20;0.20;;;;;;;16.99;49.57;94988.19;5043484;28;20519;-64
2022/10/03 05:09:22;;;;;;;0.67;0.63;;;;;;;16.92;50.33;94997.59;5043086;28;20485;-65
2022/10/03 05:12:14;;;;;;;0.20;0.20;;;;;;;17.13;49.66;94989.00;5034220;28;20459;-72
2022/10/03 05:15:02;;;;;;;0.30;0.30;;;;;;;17.16;49.62;94988.41;5046785;28;20439;-69
2022/10/03 05:17:57;;;;;;;4.13;2.43;;;;;;;17.36;49.76;94986.44;5045245;28;20440;-68
2022/10/03 05:20:27;;;;;;;11.37;7.77;;;;;;;17.18;49.13;94985.47;5043263;28;20463;-66
2022/10/03 05:22:59;;;;;;;3.60;3.03;;;;;;;17.03;49.55;94978.59;5042505;28;20609;-75
2022/10/03 05:25:43;;;;;;;1.17;1.07;;;;;;;17.05;49.64;94991.53;5030916;28;20990;-77
2022/10/03 05:28:22;;;;;;;0.50;0.50;;;;;;;17.03;50.10;94989.19;5041369;28;20439;-76
2022/10/03 05:31:00;;;;;;;3.50;1.27;;;;;;;17.02;49.98;94986.84;5029894;28;20440;-68
2022/10/03 05:33:49;;;;;;;0.53;0.53;;;;;;;17.28;49.64;94984.50;5039216;28;20493;-68
2022/10/03 05:36:16;;;;;;;0.90;0.90;;;;;;;17.24;49.26;94985.06;5047286;28;21039;-68
2022/10/03 05:38:56;;;;;;;0.77;0.77;;;;;;;17.14;49.47;94966.75;5046994;28;20522;-69
2022/10/03 05:41:30;;;;;;;0.30;0.30;;;;;;;17.16;49.81;94959.31;5036321;28;21014;-68
2022/10/03 05:44:00;;;;;;;0.97;0.97;;;;;;;17.34;49.65;94949.66;5041784;28;20941;-67
2022/10/03 05:46:39;;;;;;;0.37;0.37;;;;;;;17.62;49.08;94945.94;5046574;28;20562;-67
2022/10/03 05:49:37;;;;;;;0.97;0.83;;;;;;;17.68;49.89;94957.22;5048878;28;20573;-68
2022/10/03 05:52:39;;;;;;;0.47;0.47;;;;;;;17.68;49.10;94951.91;5030937;28;20444;-67
2022/10/03 05:55:35;;;;;;;0.00;0.00;;;;;;;17.76;49.11;94961.78;5044905;28;20476;-67
2022/10/03 05:58:28;;;;;;;0.40;0.40;;;;;;;17.85;49.09;94968.75;5049164;28;20902;-69
2022/10/03 06:00:56;;;;;;;0.53;0.53;;;;;;;17.80;49.08;94981.34;5029063;28;20472;-68
2022/10/03 06:04:07;;;;;;;4.43;1.13;;;;;;;18.01;48.57;94971.88;5042892;28;20881;-68
2022/10/03 06:07:04;;;;;;;1.63;1.53;;;;;;;18.19;48.31;94978.88;5030793;28;20487;-67
2022/10/03 06:09:38;;;;;;;0.90;0.90;;;;;;;18.03;48.35;94985.59;5029506;28;20951;-67
2022/10/03 06:12:09;;;;;;;1.10;0.67;;;;;;;17.93;48.93;94969.91;5029354;28;20452;-67
2022/10/03 06:14:44;;;;;;;0.10;0.10;;;;;;;17.96;48.97;94980.72;5036842;28;20533;-68
2022/10/03 06:17:36;;;;;;;6.03;1.70;;;;;;;17.78;49.91;94978.97;5049354;28;20909;-69
2022/10/03 06:20:45;;;;;;;4.33;1.43;;;;;;;17.95;49.35;94983.66;5049171;28;20526;-68
2022/10/03 06:23:33;;;;;;;1.13;1.13;;;;;;;18.10;49.04;94993.94;5037812;28;20449;-68
2022/10/03 06:26:03;;;;;;;0.40;0.40;;;;;;;18.14;48.72;95002.84;5034553;28;20470;-69
2022/10/03 06:28:29;;;;;;;0.83;0.83;;;;;;;18.05;48.90;95000.13;5038728;28;20535;-67
2022/10/03 06:31:15;;;;;;;1.03;0.97;;;;;;;18.16;49.14;95004.13;5042735;28;20863;-67
2022/10/03 06:33:51;;;;;;;1.13;1.03;;;;;;;18.19;49.17;94992.13;5039374;28;21010;-68
2022/10/03 06:36:36;;;;;;;2.20;1.57;;;;;;;18.11;49.13;94982.22;5030414;28;20486;-67
2022/10/03 06:39:33;;;;;;;1.63;1.53;;;;;;;18.30;49.03;94985.50;5041893;28;20442;-68
2022/10/03 06:42:16;;;;;;;3.17;2.47;;;;;;;18.45;48.89;94995.78;5029972;28;20436;-68
2022/10/03 06:45:14;;;;;;;0.40;0.40;;;;;;;18.41;48.86;95005.41;5038615;28;20483;-68
2022/10/03 06:47:56;;;;;;;1.37;1.30;;;;;;;18.41;48.57;95002.78;5030183;28;20491;-67
2022/10/03 06:50:45;;;;;;;0.73;0.73;;;;;;;18.72;47.99;95003.59;5038722;28;20450;-67
2022/10/03 06:53:29;;;;;;;0.20;0.20;;;;;;;18.59;48.37;94998.38;5042837;28;20477;-67
2022/10/03 06:55:59;;;;;;;0.50;0.50;;;;;;;18.76;47.82;94998.47;5044857;28;20490;-67
2022/10/03 06:59:14;;;;;;;0.97;0.93;;;;;;;18.59;48.37;95009.78;5032534;28;20473;-69
2022/10/03 07:02:38;;;;;;;0.87;0.83;;;;;;;18.74;47.83;95006.75;5033471;28;21006;-68
2022/10/03 07:05:49;;;;;;;0.70;0.70;;;;;;;18.46;48.19;95023.09;5023599;28;20494;-70
2022/10/03 07:08:35;;;;;;;0.47;0.47;;;;;;;18.61;47.92;95026.16;5021590;28;20443;-71
2022/10/03 07:11:39;;;;;;;0.20;0.20;;;;;;;18.24;48.46;95034.47;5050373;28;20496;-69
2022/10/03 07:15:01;;;;;;;0.67;0.67;;;;;;;18.47;47.80;95049.34;5034413;28;20980;-68
2022/10/03 07:17:30;;;;;;;0.43;0.43;;;;;;;18.49;48.04;95047.16;5055969;28;20435;-68
2022/10/03 07:20:09;;;;;;;0.20;0.20;;;;;;;18.46;48.39;95058.41;5052360;28;20478;-69
2022/10/03 07:22:54;;;;;;;0.23;0.23;;;;;;;17.97;48.32;95066.34;5049125;28;20456;-67
2022/10/03 07:25:40;;;;;;;0.00;0.00;;;;;;;18.04;48.07;95074.66;5032493;28;20450;-69
2022/10/03 07:28:31;;;;;;;1.17;0.70;;;;;;;18.06;48.55;95091.06;5039202;28;21149;-69
2022/10/03 07:30:58;;;;;;;1.73;1.43;;;;;;;18.14;48.44;95095.66;5050010;28;20434;-69
2022/10/03 07:33:52;;;;;;;0.00;0.00;;;;;;;18.18;48.28;95086.03;5040782;28;20435;-69
2022/10/03 07:39:50;;;;;;;0.87;0.67;;;;;;;18.27;48.57;95100.16;5046004;28;20481;-69
2022/10/03 07:42:40;;;;;;;0.20;0.20;;;;;;;18.17;48.85;95103.03;5032186;28;20524;-68
2022/10/03 07:45:33;;;;;;;1.60;1.20;;;;;;;18.19;48.62;95100.88;5045017;28;21024;-68
2022/10/03 07:48:02;;;;;;;0.70;0.70;;;;;;;17.80;49.18;95097.97;5043470;28;20475;-69
2022/10/03 07:51:12;;;;;;;1.33;1.23;;;;;;;17.60;49.56;95099.13;5032299;28;20584;-68
2022/10/03 07:54:10;;;;;;;1.20;1.10;;;;;;;17.32;50.98;95102.03;5046212;28;20504;-69
2022/10/03 07:56:59;;;;;;;0.23;0.13;;;;;;;17.53;50.01;95108.56;5035140;28;20498;-68
2022/10/03 08:00:07;;;;;;;1.03;1.00;;;;;;;17.81;50.05;95099.53;5039854;28;20825;-68
2022/10/03 08:03:41;;;;;;;0.30;0.30;;;;;;;17.33;51.15;95095.63;5051233;28;20439;-68
2022/10/03 08:06:23;;;;;;;5.63;1.30;;;;;;;17.44;51.48;95105.78;4991314;28;20556;-70
2022/10/03 08:09:10;;;;;;;0.63;0.63;;;;;;;16.84;53.00;95099.63;5045231;28;20454;-66
2022/10/03 08:12:19;;;;;;;0.67;0.67;;;;;;;17.91;50.68;95104.63;5040013;28;20443;-68
2022/10/03 08:15:21;;;;;;;0.40;0.40;;;;;;;18.17;50.16;95097.75;5039090;28;20522;-67
2022/10/03 08:17:54;;;;;;;0.40;0.40;;;;;;;18.16;50.28;95101.47;5037344;28;20964;-69
2022/10/03 08:21:12;;;;;;;0.83;0.83;;;;;;;17.84;50.59;95104.25;5038167;28;20957;-68
2022/10/03 08:23:55;;;;;;;0.57;0.57;;;;;;;16.95;52.94;95106.31;5060588;28;21039;-69
2022/10/03 08:26:38;;;;;;;0.40;0.40;;;;;;;17.19;53.28;95104.34;5044659;28;20863;-68
2022/10/03 08:29:31;;;;;;;2.27;1.90;;;;;;;17.71;52.42;95121.72;5030449;28;20816;-67
2022/10/03 08:32:47;;;;;;;0.50;0.50;;;;;;;18.07;51.61;95113.84;5051137;28;20444;-69
2022/10/03 08:35:20;;;;;;;0.70;0.70;;;;;;;17.96;51.75;95123.09;5041511;28;20453;-69
2022/10/03 08:37:53;;;;;;;0.33;0.27;;;;;;;18.17;51.46;95109.09;5050851;28;20798;-68
2022/10/03 08:40:52;;;;;;;0.43;0.43;;;;;;;18.11;52.27;95120.94;5041138;28;20513;-67
2022/10/03 08:43:45;;;;;;;0.27;0.27;;;;;;;18.16;52.49;95117.38;5042910;28;20447;-69
2022/10/03 08:46:24;;;;;;;0.43;0.40;;;;;;;17.52;53.48;95117.56;5038775;28;20470;-68
2022/10/03 08:49:19;;;;;;;0.00;0.00;;;;;;;17.78;53.71;95127.41;5048773;28;20964;-69
2022/10/03 08:51:52;;;;;;;0.30;0.30;;;;;;;18.00;52.92;95124.06;5031094;28;21035;-68
2022/10/03 08:54:50;;;;;;;0.80;0.80;;;;;;;18.20;51.76;95121.00;5041909;28;20974;-68
2022/10/03 08:57:43;;;;;;;0.60;0.57;;;;;;;18.33;52.76;95116.75;5035991;28;20443;-67
2022/10/03 09:00:22;;;;;;;0.10;0.10;;;;;;;18.24;52.57;95116.69;5050372;28;20453;-69
2022/10/03 09:03:30;;;;;;;0.10;0.10;;;;;;;18.15;52.07;95127.22;5050633;28;20846;-68
2022/10/03 09:06:23;;;;;;;0.10;0.10;;;;;;;18.39;52.20;95111.06;5037760;28;20457;-68
2022/10/03 09:09:02;;;;;;;0.10;0.10;;;;;;;18.23;51.91;95117.75;5050333;28;20838;-70
2022/10/03 09:11:35;;;;;;;0.10;0.10;;;;;;;18.55;51.96;95120.28;5050569;28;20443;-68
2022/10/03 09:14:27;;;;;;;0.10;0.10;;;;;;;18.51;52.23;95119.31;5046865;28;20444;-69
2022/10/03 09:17:15;;;;;;;0.10;0.10;;;;;;;18.50;51.83;95116.97;5042594;28;20439;-69
2022/10/03 09:20:15;;;;;;;0.10;0.10;;;;;;;18.83;51.57;95116.44;5038036;28;20446;-68
2022/10/03 09:23:00;;;;;;;0.50;0.50;;;;;;;19.06;51.53;95114.56;5050123;28;20497;-70
2022/10/03 09:25:39;;;;;;;0.10;0.10;;;;;;;19.24;51.42;95118.91;5049918;28;20907;-69
2022/10/03 09:28:24;;;;;;;0.50;0.50;;;;;;;19.14;50.73;95116.50;5049893;28;20548;-73
2022/10/03 09:31:04;;;;;;;0.17;0.17;;;;;;;18.98;50.63;95113.44;5048128;28;20969;-71
2022/10/03 09:33:40;;;;;;;0.57;0.57;;;;;;;18.90;51.11;95110.72;5039298;28;20451;-68
2022/10/03 09:36:29;;;;;;;0.00;0.00;;;;;;;18.28;51.79;95109.72;5050008;28;21073;-68
2022/10/03 09:39:16;;;;;;;1.17;0.33;;;;;;;18.81;50.40;95102.66;5049374;28;20447;-69
2022/10/03 09:42:10;;;;;;;0.00;0.00;;;;;;;18.95;50.31;95114.03;5029703;28;20444;-67
2022/10/03 09:44:43;;;;;;;0.07;0.07;;;;;;;19.51;49.79;95110.00;5038184;28;20470;-71
2022/10/03 09:47:47;;;;;;;0.20;0.20;;;;;;;19.28;50.02;95105.78;5049530;28;20478;-72
2022/10/03 09:50:54;;;;;;;0.27;0.27;;;;;;;18.68;49.82;95097.44;5036712;28;20530;-75
2022/10/03 09:53:51;;;;;;;0.10;0.10;;;;;;;19.29;48.95;95112.69;5029697;28;20477;-69
2022/10/03 09:56:24;;;;;;;0.10;0.10;;;;;;;19.14;48.51;95105.88;5040531;28;20471;-72
2022/10/03 09:58:57;;;;;;;0.57;0.57;;;;;;;18.93;48.76;95108.25;5047418;28;20447;-68
2022/10/03 10:01:41;;;;;;;0.13;0.13;;;;;;;19.31;47.85;95094.56;5044216;28;20469;-68
2022/10/03 10:04:31;;;;;;;0.10;0.10;;;;;;;18.56;48.55;95105.91;5035210;28;20457;-72
2022/10/03 10:07:45;;;;;;;0.10;0.10;;;;;;;19.43;47.48;95081.53;5045635;28;20471;-70
2022/10/03 10:11:03;;;;;;;0.33;0.33;;;;;;;20.46;46.22;95077.28;5042493;28;20450;-69
2022/10/03 10:14:01;;;;;;;0.40;0.40;;;;;;;19.93;45.33;95074.81;5048697;28;20441;-67
2022/10/03 10:16:59;;;;;;;0.23;0.23;;;;;;;20.16;44.05;95068.31;5029072;28;20446;-69
2022/10/03 10:19:29;;;;;;;0.10;0.10;;;;;;;19.58;44.87;95089.88;5029155;28;20436;-69
2022/10/03 10:22:21;;;;;;;0.00;0.00;;;;;;;19.27;45.02;95083.00;5028942;28;20518;-70
2022/10/03 10:25:15;;;;;;;0.07;0.07;;;;;;;19.65;44.00;95094.75;5028747;28;20933;-69
2022/10/03 10:28:03;;;;;;;0.00;0.00;;;;;;;19.89;43.56;95090.63;5044735;28;20508;-70
2022/10/03 10:30:58;;;;;;;0.17;0.17;;;;;;;19.82;43.77;95081.50;5029219;28;20439;-67
2022/10/03 10:34:13;;;;;;;0.00;0.00;;;;;;;19.74;43.01;95088.38;5037728;28;20443;-71
2022/10/03 10:37:18;;;;;;;0.50;0.50;;;;;;;20.10;42.77;95086.31;5041751;28;20501;-67
2022/10/03 10:40:44;;;;;;;0.10;0.10;;;;;;;20.12;42.64;95083.34;5042912;28;20454;-69
2022/10/03 10:43:38;;;;;;;0.00;0.00;;;;;;;19.84;42.96;95093.41;5046063;28;20451;-69
2022/10/03 10:46:43;;;;;;;0.20;0.20;;;;;;;19.98;42.66;95090.66;5029140;28;20975;-75
2022/10/03 10:49:41;;;;;;;0.30;0.30;;;;;;;20.54;41.56;95093.28;5029174;28;20443;-69
2022/10/03 10:52:10;;;;;;;0.07;0.07;;;;;;;20.38;41.74;95076.22;5034131;28;20450;-69
2022/10/03 10:54:52;;;;;;;0.10;0.10;;;;;;;20.57;41.08;95074.00;5047367;28;21043;-68
2022/10/03 10:57:43;;;;;;;0.10;0.10;;;;;;;20.03;41.36;95085.19;5048796;28;20435;-73
2022/10/03 11:00:31;;;;;;;0.07;0.07;;;;;;;20.21;41.34;95076.19;5049061;28;20501;-70
2022/10/03 11:03:16;;;;;;;0.20;0.20;;;;;;;20.45;41.34;95081.84;5048812;28;20486;-69
2022/10/03 11:06:27;;;;;;;0.10;0.10;;;;;;;21.10;40.33;95071.81;5030146;28;20455;-68
2022/10/03 11:08:55;;;;;;;0.20;0.20;;;;;;;20.45;40.77;95063.22;5042737;28;20456;-70
2022/10/03 11:11:38;;;;;;;0.40;0.40;;;;;;;21.30;39.75;95081.00;5038205;28;20439;-70
2022/10/03 11:14:40;;;;;;;0.10;0.10;;;;;;;20.54;40.90;95092.50;5045592;28;20460;-70
2022/10/03 11:17:25;;;;;;;0.30;0.30;;;;;;;20.79;41.46;95092.50;5043024;28;20831;-66
2022/10/03 11:20:13;;;;;;;0.10;0.10;;;;;;;20.59;41.84;95082.47;5039683;28;20957;-67
2022/10/03 11:22:40;;;;;;;0.00;0.00;;;;;;;20.36;41.99;95083.72;5047301;28;20500;-69
2022/10/03 11:25:40;;;;;;;0.03;0.03;;;;;;;20.38;41.60;95086.84;5048871;28;20541;-73
2022/10/03 11:28:26;;;;;;;1.17;0.53;;;;;;;20.16;41.41;95094.94;5034620;28;20494;-65
2022/10/03 11:31:05;;;;;;;0.40;0.40;;;;;;;20.68;40.47;95090.44;5038034;28;20446;-68
2022/10/03 11:34:10;;;;;;;0.30;0.20;;;;;;;20.89;40.17;95091.41;5046227;28;21064;-65
2022/10/03 11:36:59;;;;;;;0.00;0.00;;;;;;;21.13;39.61;95086.34;5030579;28;21037;-68
2022/10/03 11:39:42;;;;;;;0.37;0.37;;;;;;;21.08;39.83;95084.66;5036415;28;20521;-68
2022/10/03 11:42:21;;;;;;;0.20;0.20;;;;;;;20.87;39.80;95086.38;5038255;28;20906;-66
2022/10/03 11:44:58;;;;;;;0.30;0.30;;;;;;;20.42;39.83;95085.13;5050555;28;20506;-65
2022/10/03 11:48:14;;;;;;;0.10;0.10;;;;;;;20.65;40.00;95086.56;5040296;28;21021;-66
2022/10/03 11:50:58;;;;;;;0.10;0.10;;;;;;;19.79;41.07;95101.53;5030644;28;21610;-69
2022/10/03 11:54:03;;;;;;;0.00;0.00;;;;;;;20.76;39.95;95076.38;5034051;28;20456;-68
2022/10/03 11:57:12;;;;;;;0.37;0.37;;;;;;;20.86;39.63;95071.50;5036477;28;20573;-67
2022/10/03 11:59:50;;;;;;;0.30;0.30;;;;;;;20.14;41.38;95076.59;5038917;28;20506;-66
2022/10/03 12:02:50;;;;;;;0.13;0.13;;;;;;;20.38;40.92;95070.88;5035716;28;20442;-69
2022/10/03 12:05:37;;;;;;;0.07;0.07;;;;;;;20.21;41.14;95062.09;5048677;28;20451;-64
2022/10/03 12:11:27;;;;;;;0.27;0.27;;;;;;;20.16;41.33;95063.00;5029972;28;20450;-67
2022/10/03 12:14:09;;;;;;;0.10;0.10;;;;;;;20.91;40.79;95055.34;5046052;28;20446;-70
2022/10/03 12:16:40;;;;;;;0.23;0.23;;;;;;;21.20;39.11;95048.59;5048515;28;20446;-72
2022/10/03 12:19:10;;;;;;;0.40;0.40;;;;;;;20.68;40.12;95053.97;5035273;28;20778;-69
2022/10/03 12:21:56;;;;;;;0.30;0.30;;;;;;;21.18;39.02;95046.25;5028172;28;20547;-67
2022/10/03 12:24:26;;;;;;;0.60;0.60;;;;;;;21.32;37.97;95054.03;5030806;28;20765;-67
2022/10/03 12:26:53;;;;;;;0.20;0.20;;;;;;;21.76;37.50;95061.53;5029946;28;20750;-68
2022/10/03 12:29:23;;;;;;;0.67;0.67;;;;;;;22.42;35.30;95042.03;5037417;28;20954;-63
2022/10/03 12:32:09;;;;;;;0.20;0.20;;;;;;;22.46;35.44;95047.50;5040951;28;20482;-69
2022/10/03 12:34:41;;;;;;;0.20;0.20;;;;;;;22.70;34.65;95050.31;5031642;28;20451;-65
2022/10/03 12:37:22;;;;;;;3.10;0.73;;;;;;;22.28;34.20;95038.81;5037485;28;20459;-70
2022/10/03 12:40:09;;;;;;;0.27;0.27;;;;;;;22.82;34.51;95037.78;5036875;28;20447;-68
2022/10/03 12:42:54;;;;;;;0.33;0.30;;;;;;;22.72;33.70;95042.72;5033009;28;20462;-66
2022/10/03 12:45:35;;;;;;;0.83;0.83;;;;;;;21.91;33.98;95039.69;5029068;28;20476;-68
2022/10/03 12:48:32;;;;;;;0.10;0.10;;;;;;;22.44;32.48;95042.50;5049967;28;20478;-67
2022/10/03 12:51:05;;;;;;;3.67;1.23;;;;;;;22.89;31.82;95019.34;5029177;28;20436;-65
2022/10/03 12:53:37;;;;;;;0.10;0.10;;;;;;;22.97;31.97;95041.75;5031261;28;20479;-65
2022/10/03 12:56:20;;;;;;;0.53;0.53;;;;;;;23.87;31.11;95034.41;5032988;28;20458;-68
2022/10/03 12:59:06;;;;;;;0.43;0.43;;;;;;;23.26;31.77;95038.94;5034935;28;20551;-68
2022/10/03 13:01:39;;;;;;;0.20;0.20;;;;;;;23.16;32.08;95043.91;5037709;28;20458;-66
2022/10/03 13:04:46;;;;;;;0.20;0.20;;;;;;;24.17;31.33;95040.34;5048684;28;20442;-67
2022/10/03 13:07:32;;;;;;;0.23;0.23;;;;;;;24.63;29.94;95042.47;5031478;28;20482;-68
2022/10/03 13:10:08;;;;;;;0.30;0.30;;;;;;;24.77;29.81;95049.03;5043172;28;20458;-66
2022/10/03 13:12:35;;;;;;;0.70;0.70;;;;;;;24.58;29.63;95046.16;5041613;28;20467;-67
2022/10/03 13:15:20;;;;;;;0.30;0.30;;;;;;;24.11;29.23;95053.19;5042671;28;20542;-71
2022/10/03 13:17:59;;;;;;;0.10;0.10;;;;;;;24.18;29.95;95053.38;5040668;28;20438;-67
2022/10/03 13:20:38;;;;;;;0.20;0.20;;;;;;;24.64;29.25;95049.38;5045471;28;20478;-67
2022/10/03 13:23:32;;;;;;;0.10;0.10;;;;;;;23.75;29.92;95053.16;5039456;28;20212;-68